sensor_id;sensor_type;location;lat;lon;timestamp;P1;durP1;ratioP1;P2;durP2;ratioP2
12976;SDS011;6553;48.412;9.514;2023-08-20T00:01:04;5.00;;;4.60;;
12976;SDS011;6553;48.412;9.514;2023-08-20T00:03:30;5.30;;;4.80;;
12976;SDS011;6553;48.412;9.514;2023-08-20T00:05:56;5.13;;;4.70;;
12976;SDS011;6553;48.412;9.514;2023-08-20T00:08:22;5.70;;;5.30;;
12976;SDS011;6553;48.412;9.514;2023-08-20T00:10:48;5.60;;;5.10;;
12976;SDS011;6553;48.412;9.514;2023-08-20T00:13:13;5.30;;;4.80;;
12976;SDS011;6553;48.412;9.514;2023-08-20T00:15:39;5.10;;;4.70;;
12976;SDS011;6553;48.412;9.514;2023-08-20T00:18:05;5.20;;;4.80;;
12976;SDS011;6553;48.412;9.514;2023-08-20T00:20:32;4.80;;;4.50;;
12976;SDS011;6553;48.412;9.514;2023-08-20T00:22:58;5.05;;;4.55;;
12976;SDS011;6553;48.412;9.514;2023-08-20T00:25:25;4.55;;;4.25;;
12976;SDS011;6553;48.412;9.514;2023-08-20T00:27:51;5.25;;;4.85;;
12976;SDS011;6553;48.412;9.514;2023-08-20T00:30:16;5.43;;;4.95;;
12976;SDS011;6553;48.412;9.514;2023-08-20T00:32:42;5.18;;;4.75;;
12976;SDS011;6553;48.412;9.514;2023-08-20T00:35:08;4.90;;;4.50;;
12976;SDS011;6553;48.412;9.514;2023-08-20T00:37:35;5.20;;;4.80;;
12976;SDS011;6553;48.412;9.514;2023-08-20T00:40:01;5.25;;;4.88;;
12976;SDS011;6553;48.412;9.514;2023-08-20T00:42:31;5.38;;;4.95;;
12976;SDS011;6553;48.412;9.514;2023-08-20T00:44:57;5.10;;;4.70;;
12976;SDS011;6553;48.412;9.514;2023-08-20T00:47:22;5.22;;;4.82;;
12976;SDS011;6553;48.412;9.514;2023-08-20T00:49:48;5.22;;;4.82;;
12976;SDS011;6553;48.412;9.514;2023-08-20T00:52:15;4.95;;;4.55;;
12976;SDS011;6553;48.412;9.514;2023-08-20T00:54:44;4.75;;;4.45;;
12976;SDS011;6553;48.412;9.514;2023-08-20T00:57:12;5.15;;;4.78;;
12976;SDS011;6553;48.412;9.514;2023-08-20T00:59:40;5.28;;;4.88;;
12976;SDS011;6553;48.412;9.514;2023-08-20T01:02:08;5.22;;;4.80;;
12976;SDS011;6553;48.412;9.514;2023-08-20T01:04:34;5.10;;;4.70;;
12976;SDS011;6553;48.412;9.514;2023-08-20T01:07:02;5.55;;;5.15;;
12976;SDS011;6553;48.412;9.514;2023-08-20T01:12:48;5.22;;;4.82;;
12976;SDS011;6553;48.412;9.514;2023-08-20T01:15:16;5.20;;;4.80;;
12976;SDS011;6553;48.412;9.514;2023-08-20T01:17:43;5.28;;;4.88;;
12976;SDS011;6553;48.412;9.514;2023-08-20T01:20:11;5.10;;;4.70;;
12976;SDS011;6553;48.412;9.514;2023-08-20T01:29:17;5.28;;;4.88;;
12976;SDS011;6553;48.412;9.514;2023-08-20T01:31:43;5.22;;;4.82;;
12976;SDS011;6553;48.412;9.514;2023-08-20T01:34:10;5.07;;;4.65;;
12976;SDS011;6553;48.412;9.514;2023-08-20T01:36:38;5.38;;;4.97;;
12976;SDS011;6553;48.412;9.514;2023-08-20T01:39:04;5.30;;;4.90;;
12976;SDS011;6553;48.412;9.514;2023-08-20T01:41:30;5.05;;;4.75;;
12976;SDS011;6553;48.412;9.514;2023-08-20T01:43:56;5.40;;;5.00;;
12976;SDS011;6553;48.412;9.514;2023-08-20T01:46:21;5.55;;;5.05;;
12976;SDS011;6553;48.412;9.514;2023-08-20T01:48:50;5.45;;;5.05;;
12976;SDS011;6553;48.412;9.514;2023-08-20T01:51:15;5.78;;;5.28;;
12976;SDS011;6553;48.412;9.514;2023-08-20T01:53:41;4.90;;;4.50;;
12976;SDS011;6553;48.412;9.514;2023-08-20T01:56:10;5.13;;;4.72;;
12976;SDS011;6553;48.412;9.514;2023-08-20T01:58:38;5.68;;;5.18;;
12976;SDS011;6553;48.412;9.514;2023-08-20T02:01:04;5.20;;;4.80;;
12976;SDS011;6553;48.412;9.514;2023-08-20T02:03:30;5.05;;;4.55;;
12976;SDS011;6553;48.412;9.514;2023-08-20T02:05:56;5.68;;;5.18;;
12976;SDS011;6553;48.412;9.514;2023-08-20T02:08:22;4.80;;;4.50;;
12976;SDS011;6553;48.412;9.514;2023-08-20T02:10:48;5.45;;;5.05;;
12976;SDS011;6553;48.412;9.514;2023-08-20T02:13:14;5.07;;;4.68;;
12976;SDS011;6553;48.412;9.514;2023-08-20T02:15:40;5.00;;;4.60;;
12976;SDS011;6553;48.412;9.514;2023-08-20T02:18:05;5.43;;;5.03;;
12976;SDS011;6553;48.412;9.514;2023-08-20T02:20:31;5.60;;;5.10;;
12976;SDS011;6553;48.412;9.514;2023-08-20T02:22:57;5.40;;;4.85;;
12976;SDS011;6553;48.412;9.514;2023-08-20T02:25:23;5.57;;;4.88;;
12976;SDS011;6553;48.412;9.514;2023-08-20T02:27:53;5.25;;;4.75;;
12976;SDS011;6553;48.412;9.514;2023-08-20T02:30:19;5.38;;;4.90;;
12976;SDS011;6553;48.412;9.514;2023-08-20T02:32:45;5.75;;;5.35;;
12976;SDS011;6553;48.412;9.514;2023-08-20T02:35:11;5.20;;;4.80;;
12976;SDS011;6553;48.412;9.514;2023-08-20T02:37:40;5.10;;;4.70;;
12976;SDS011;6553;48.412;9.514;2023-08-20T02:40:06;5.65;;;5.25;;
12976;SDS011;6553;48.412;9.514;2023-08-20T02:42:33;5.18;;;4.78;;
12976;SDS011;6553;48.412;9.514;2023-08-20T02:44:59;5.57;;;5.10;;
12976;SDS011;6553;48.412;9.514;2023-08-20T02:47:25;5.35;;;4.95;;
12976;SDS011;6553;48.412;9.514;2023-08-20T02:49:50;5.30;;;4.90;;
12976;SDS011;6553;48.412;9.514;2023-08-20T02:52:16;5.55;;;5.05;;
12976;SDS011;6553;48.412;9.514;2023-08-20T02:54:42;5.03;;;4.63;;
12976;SDS011;6553;48.412;9.514;2023-08-20T02:57:08;5.38;;;4.97;;
12976;SDS011;6553;48.412;9.514;2023-08-20T02:59:33;5.30;;;4.90;;
12976;SDS011;6553;48.412;9.514;2023-08-20T03:01:59;5.15;;;4.75;;
12976;SDS011;6553;48.412;9.514;2023-08-20T03:04:25;5.28;;;4.88;;
12976;SDS011;6553;48.412;9.514;2023-08-20T03:06:51;5.75;;;5.35;;
12976;SDS011;6553;48.412;9.514;2023-08-20T03:09:17;5.10;;;4.80;;
12976;SDS011;6553;48.412;9.514;2023-08-20T03:11:42;5.43;;;5.00;;
12976;SDS011;6553;48.412;9.514;2023-08-20T03:14:08;5.60;;;5.10;;
12976;SDS011;6553;48.412;9.514;2023-08-20T03:16:34;4.90;;;4.60;;
12976;SDS011;6553;48.412;9.514;2023-08-20T03:19:00;5.15;;;4.75;;
12976;SDS011;6553;48.412;9.514;2023-08-20T03:21:25;5.28;;;4.80;;
12976;SDS011;6553;48.412;9.514;2023-08-20T03:23:51;5.53;;;5.13;;
12976;SDS011;6553;48.412;9.514;2023-08-20T03:26:17;5.20;;;4.80;;
12976;SDS011;6553;48.412;9.514;2023-08-20T03:28:43;6.40;;;4.85;;
12976;SDS011;6553;48.412;9.514;2023-08-20T03:31:09;5.65;;;5.18;;
12976;SDS011;6553;48.412;9.514;2023-08-20T03:33:39;5.38;;;4.97;;
12976;SDS011;6553;48.412;9.514;2023-08-20T03:36:04;5.47;;;5.07;;
12976;SDS011;6553;48.412;9.514;2023-08-20T03:38:30;5.20;;;4.80;;
12976;SDS011;6553;48.412;9.514;2023-08-20T03:40:56;5.45;;;4.95;;
12976;SDS011;6553;48.412;9.514;2023-08-20T03:43:22;5.70;;;5.30;;
12976;SDS011;6553;48.412;9.514;2023-08-20T03:45:51;5.55;;;5.15;;
12976;SDS011;6553;48.412;9.514;2023-08-20T03:48:18;5.45;;;4.95;;
12976;SDS011;6553;48.412;9.514;2023-08-20T03:50:43;5.80;;;5.30;;
12976;SDS011;6553;48.412;9.514;2023-08-20T03:53:09;5.40;;;5.00;;
12976;SDS011;6553;48.412;9.514;2023-08-20T03:55:35;5.53;;;5.13;;
12976;SDS011;6553;48.412;9.514;2023-08-20T03:58:01;6.15;;;5.65;;
12976;SDS011;6553;48.412;9.514;2023-08-20T04:00:26;5.65;;;5.15;;
12976;SDS011;6553;48.412;9.514;2023-08-20T04:02:52;5.32;;;4.88;;
12976;SDS011;6553;48.412;9.514;2023-08-20T04:05:18;5.70;;;5.30;;
12976;SDS011;6553;48.412;9.514;2023-08-20T04:07:43;5.82;;;5.32;;
12976;SDS011;6553;48.412;9.514;2023-08-20T04:10:10;5.22;;;4.82;;
12976;SDS011;6553;48.412;9.514;2023-08-20T04:12:35;6.57;;;5.15;;
12976;SDS011;6553;48.412;9.514;2023-08-20T04:15:02;5.25;;;4.85;;
12976;SDS011;6553;48.412;9.514;2023-08-20T04:17:28;5.13;;;4.72;;
12976;SDS011;6553;48.412;9.514;2023-08-20T04:19:54;6.10;;;5.50;;
12976;SDS011;6553;48.412;9.514;2023-08-20T04:22:19;5.68;;;5.28;;
12976;SDS011;6553;48.412;9.514;2023-08-20T04:24:45;4.88;;;4.47;;
12976;SDS011;6553;48.412;9.514;2023-08-20T04:27:11;5.85;;;5.35;;
12976;SDS011;6553;48.412;9.514;2023-08-20T04:29:40;6.00;;;5.45;;
12976;SDS011;6553;48.412;9.514;2023-08-20T04:32:06;5.45;;;4.95;;
12976;SDS011;6553;48.412;9.514;2023-08-20T04:34:32;5.22;;;4.85;;
12976;SDS011;6553;48.412;9.514;2023-08-20T04:36:58;5.38;;;4.97;;
12976;SDS011;6553;48.412;9.514;2023-08-20T04:39:23;4.80;;;4.50;;
12976;SDS011;6553;48.412;9.514;2023-08-20T04:41:52;5.00;;;4.60;;
12976;SDS011;6553;48.412;9.514;2023-08-20T04:44:18;5.47;;;5.07;;
12976;SDS011;6553;48.412;9.514;2023-08-20T04:46:45;5.30;;;4.90;;
12976;SDS011;6553;48.412;9.514;2023-08-20T04:49:11;5.20;;;4.90;;
12976;SDS011;6553;48.412;9.514;2023-08-20T04:51:38;5.65;;;5.15;;
12976;SDS011;6553;48.412;9.514;2023-08-20T04:54:04;5.13;;;4.82;;
12976;SDS011;6553;48.412;9.514;2023-08-20T04:56:29;5.53;;;5.10;;
12976;SDS011;6553;48.412;9.514;2023-08-20T04:58:56;5.45;;;5.05;;
12976;SDS011;6553;48.412;9.514;2023-08-20T05:01:44;4.68;;;4.35;;
12976;SDS011;6553;48.412;9.514;2023-08-20T05:04:11;5.40;;;4.90;;
12976;SDS011;6553;48.412;9.514;2023-08-20T05:06:37;5.60;;;5.15;;
12976;SDS011;6553;48.412;9.514;2023-08-20T05:09:03;5.57;;;5.13;;
12976;SDS011;6553;48.412;9.514;2023-08-20T05:11:28;5.28;;;4.90;;
12976;SDS011;6553;48.412;9.514;2023-08-20T05:13:56;5.20;;;4.88;;
12976;SDS011;6553;48.412;9.514;2023-08-20T05:16:23;5.18;;;4.78;;
12976;SDS011;6553;48.412;9.514;2023-08-20T05:18:49;5.68;;;5.28;;
12976;SDS011;6553;48.412;9.514;2023-08-20T05:21:15;5.30;;;4.95;;
12976;SDS011;6553;48.412;9.514;2023-08-20T05:23:41;5.55;;;5.15;;
12976;SDS011;6553;48.412;9.514;2023-08-20T05:26:06;5.53;;;5.13;;
12976;SDS011;6553;48.412;9.514;2023-08-20T05:28:33;5.88;;;5.40;;
12976;SDS011;6553;48.412;9.514;2023-08-20T05:30:59;5.82;;;5.43;;
12976;SDS011;6553;48.412;9.514;2023-08-20T05:33:26;5.43;;;5.03;;
12976;SDS011;6553;48.412;9.514;2023-08-20T05:35:53;5.40;;;4.90;;
12976;SDS011;6553;48.412;9.514;2023-08-20T05:38:20;5.35;;;5.00;;
12976;SDS011;6553;48.412;9.514;2023-08-20T05:40:47;5.60;;;5.18;;
12976;SDS011;6553;48.412;9.514;2023-08-20T05:43:13;5.35;;;5.00;;
12976;SDS011;6553;48.412;9.514;2023-08-20T05:45:39;5.25;;;4.85;;
12976;SDS011;6553;48.412;9.514;2023-08-20T05:48:07;5.57;;;5.13;;
12976;SDS011;6553;48.412;9.514;2023-08-20T05:50:33;5.68;;;5.18;;
12976;SDS011;6553;48.412;9.514;2023-08-20T05:52:59;5.53;;;5.13;;
12976;SDS011;6553;48.412;9.514;2023-08-20T05:55:26;5.80;;;5.30;;
12976;SDS011;6553;48.412;9.514;2023-08-20T05:57:54;5.80;;;5.30;;
12976;SDS011;6553;48.412;9.514;2023-08-20T06:00:19;6.07;;;5.57;;
12976;SDS011;6553;48.412;9.514;2023-08-20T06:02:46;6.40;;;5.65;;
12976;SDS011;6553;48.412;9.514;2023-08-20T06:05:12;5.97;;;5.38;;
12976;SDS011;6553;48.412;9.514;2023-08-20T06:07:38;6.15;;;5.55;;
12976;SDS011;6553;48.412;9.514;2023-08-20T06:10:05;6.32;;;5.43;;
12976;SDS011;6553;48.412;9.514;2023-08-20T06:12:32;14.57;;;6.57;;
12976;SDS011;6553;48.412;9.514;2023-08-20T06:14:59;7.75;;;5.82;;
12976;SDS011;6553;48.412;9.514;2023-08-20T06:17:24;8.65;;;6.05;;
12976;SDS011;6553;48.412;9.514;2023-08-20T06:19:50;9.32;;;6.32;;
12976;SDS011;6553;48.412;9.514;2023-08-20T06:22:16;9.90;;;6.07;;
12976;SDS011;6553;48.412;9.514;2023-08-20T06:24:42;8.60;;;5.93;;
12976;SDS011;6553;48.412;9.514;2023-08-20T06:27:07;10.07;;;6.55;;
12976;SDS011;6553;48.412;9.514;2023-08-20T06:29:33;9.30;;;6.75;;
12976;SDS011;6553;48.412;9.514;2023-08-20T06:31:59;9.90;;;6.72;;
12976;SDS011;6553;48.412;9.514;2023-08-20T06:34:24;9.63;;;6.78;;
12976;SDS011;6553;48.412;9.514;2023-08-20T06:36:50;9.68;;;6.05;;
12976;SDS011;6553;48.412;9.514;2023-08-20T06:39:17;9.13;;;6.63;;
12976;SDS011;6553;48.412;9.514;2023-08-20T06:41:44;10.13;;;7.10;;
12976;SDS011;6553;48.412;9.514;2023-08-20T06:44:18;8.50;;;6.28;;
12976;SDS011;6553;48.412;9.514;2023-08-20T06:46:44;10.02;;;6.72;;
12976;SDS011;6553;48.412;9.514;2023-08-20T06:49:10;9.55;;;6.28;;
12976;SDS011;6553;48.412;9.514;2023-08-20T06:51:36;15.38;;;7.32;;
12976;SDS011;6553;48.412;9.514;2023-08-20T06:54:01;11.10;;;7.07;;
12976;SDS011;6553;48.412;9.514;2023-08-20T06:56:27;11.45;;;7.45;;
12976;SDS011;6553;48.412;9.514;2023-08-20T06:58:53;12.95;;;7.72;;
12976;SDS011;6553;48.412;9.514;2023-08-20T07:01:19;9.38;;;7.15;;
12976;SDS011;6553;48.412;9.514;2023-08-20T07:03:45;11.90;;;7.55;;
12976;SDS011;6553;48.412;9.514;2023-08-20T07:06:11;11.05;;;7.50;;
12976;SDS011;6553;48.412;9.514;2023-08-20T07:08:39;10.68;;;7.32;;
12976;SDS011;6553;48.412;9.514;2023-08-20T07:11:05;11.48;;;7.93;;
12976;SDS011;6553;48.412;9.514;2023-08-20T07:13:33;12.57;;;7.45;;
12976;SDS011;6553;48.412;9.514;2023-08-20T07:15:59;11.63;;;7.82;;
12976;SDS011;6553;48.412;9.514;2023-08-20T07:18:25;10.00;;;7.28;;
12976;SDS011;6553;48.412;9.514;2023-08-20T07:20:51;9.88;;;7.20;;
12976;SDS011;6553;48.412;9.514;2023-08-20T07:23:19;10.27;;;8.00;;
12976;SDS011;6553;48.412;9.514;2023-08-20T07:25:45;9.68;;;7.22;;
12976;SDS011;6553;48.412;9.514;2023-08-20T07:28:12;14.27;;;8.02;;
12976;SDS011;6553;48.412;9.514;2023-08-20T07:30:38;11.25;;;7.03;;
12976;SDS011;6553;48.412;9.514;2023-08-20T07:33:06;11.00;;;6.95;;
12976;SDS011;6553;48.412;9.514;2023-08-20T07:35:32;10.18;;;7.15;;
12976;SDS011;6553;48.412;9.514;2023-08-20T07:38:00;11.75;;;7.75;;
12976;SDS011;6553;48.412;9.514;2023-08-20T07:40:25;12.25;;;7.75;;
12976;SDS011;6553;48.412;9.514;2023-08-20T07:42:51;14.77;;;8.45;;
12976;SDS011;6553;48.412;9.514;2023-08-20T07:45:17;13.25;;;7.63;;
12976;SDS011;6553;48.412;9.514;2023-08-20T07:47:42;12.90;;;7.90;;
12976;SDS011;6553;48.412;9.514;2023-08-20T07:50:08;11.10;;;7.20;;
12976;SDS011;6553;48.412;9.514;2023-08-20T07:52:34;10.55;;;7.35;;
12976;SDS011;6553;48.412;9.514;2023-08-20T07:55:00;11.20;;;7.32;;
12976;SDS011;6553;48.412;9.514;2023-08-20T07:57:26;12.93;;;8.00;;
12976;SDS011;6553;48.412;9.514;2023-08-20T07:59:51;11.93;;;7.57;;
12976;SDS011;6553;48.412;9.514;2023-08-20T08:02:17;13.45;;;7.60;;
12976;SDS011;6553;48.412;9.514;2023-08-20T08:04:43;13.57;;;7.95;;
12976;SDS011;6553;48.412;9.514;2023-08-20T08:07:09;12.93;;;7.65;;
12976;SDS011;6553;48.412;9.514;2023-08-20T08:09:36;11.13;;;7.53;;
12976;SDS011;6553;48.412;9.514;2023-08-20T08:12:02;11.88;;;7.63;;
12976;SDS011;6553;48.412;9.514;2023-08-20T08:14:30;10.07;;;7.30;;
12976;SDS011;6553;48.412;9.514;2023-08-20T08:16:56;11.85;;;7.30;;
12976;SDS011;6553;48.412;9.514;2023-08-20T08:19:22;9.20;;;6.95;;
12976;SDS011;6553;48.412;9.514;2023-08-20T08:21:48;13.75;;;8.25;;
12976;SDS011;6553;48.412;9.514;2023-08-20T08:24:14;10.02;;;6.97;;
12976;SDS011;6553;48.412;9.514;2023-08-20T08:26:41;12.57;;;7.55;;
12976;SDS011;6553;48.412;9.514;2023-08-20T08:29:07;9.13;;;7.15;;
12976;SDS011;6553;48.412;9.514;2023-08-20T08:31:34;11.90;;;7.80;;
12976;SDS011;6553;48.412;9.514;2023-08-20T08:34:01;11.57;;;7.25;;
12976;SDS011;6553;48.412;9.514;2023-08-20T08:36:28;13.00;;;7.43;;
12976;SDS011;6553;48.412;9.514;2023-08-20T08:38:54;10.27;;;6.90;;
12976;SDS011;6553;48.412;9.514;2023-08-20T08:41:21;9.73;;;7.40;;
12976;SDS011;6553;48.412;9.514;2023-08-20T08:43:50;9.15;;;7.25;;
12976;SDS011;6553;48.412;9.514;2023-08-20T08:46:16;11.80;;;7.32;;
12976;SDS011;6553;48.412;9.514;2023-08-20T08:48:43;11.30;;;6.57;;
12976;SDS011;6553;48.412;9.514;2023-08-20T08:51:14;7.45;;;6.65;;
12976;SDS011;6553;48.412;9.514;2023-08-20T08:53:44;10.27;;;6.53;;
12976;SDS011;6553;48.412;9.514;2023-08-20T08:56:12;10.43;;;6.47;;
12976;SDS011;6553;48.412;9.514;2023-08-20T08:58:37;8.43;;;6.80;;
12976;SDS011;6553;48.412;9.514;2023-08-20T09:01:03;9.65;;;6.15;;
12976;SDS011;6553;48.412;9.514;2023-08-20T09:03:29;8.60;;;6.47;;
12976;SDS011;6553;48.412;9.514;2023-08-20T09:05:55;10.27;;;6.57;;
12976;SDS011;6553;48.412;9.514;2023-08-20T09:08:29;8.88;;;5.65;;
12976;SDS011;6553;48.412;9.514;2023-08-20T09:10:57;8.05;;;6.65;;
12976;SDS011;6553;48.412;9.514;2023-08-20T09:13:25;11.23;;;6.78;;
12976;SDS011;6553;48.412;9.514;2023-08-20T09:16:05;10.77;;;6.72;;
12976;SDS011;6553;48.412;9.514;2023-08-20T09:20:37;8.43;;;6.38;;
12976;SDS011;6553;48.412;9.514;2023-08-20T09:23:03;9.52;;;6.03;;
12976;SDS011;6553;48.412;9.514;2023-08-20T09:25:29;6.45;;;5.85;;
12976;SDS011;6553;48.412;9.514;2023-08-20T09:27:55;6.80;;;6.07;;
12976;SDS011;6553;48.412;9.514;2023-08-20T09:30:21;9.93;;;6.78;;
12976;SDS011;6553;48.412;9.514;2023-08-20T09:33:02;8.88;;;6.95;;
12976;SDS011;6553;48.412;9.514;2023-08-20T09:35:33;7.10;;;6.03;;
12976;SDS011;6553;48.412;9.514;2023-08-20T09:37:59;9.10;;;6.47;;
12976;SDS011;6553;48.412;9.514;2023-08-20T09:40:26;8.98;;;6.57;;
12976;SDS011;6553;48.412;9.514;2023-08-20T09:42:53;6.65;;;6.00;;
12976;SDS011;6553;48.412;9.514;2023-08-20T09:45:20;9.05;;;6.55;;
12976;SDS011;6553;48.412;9.514;2023-08-20T09:47:51;8.45;;;6.30;;
12976;SDS011;6553;48.412;9.514;2023-08-20T09:50:22;8.23;;;5.97;;
12976;SDS011;6553;48.412;9.514;2023-08-20T09:53:00;6.90;;;6.20;;
12976;SDS011;6553;48.412;9.514;2023-08-20T09:55:36;7.85;;;6.47;;
12976;SDS011;6553;48.412;9.514;2023-08-20T09:58:07;7.28;;;6.28;;
12976;SDS011;6553;48.412;9.514;2023-08-20T10:00:34;8.57;;;6.32;;
12976;SDS011;6553;48.412;9.514;2023-08-20T10:03:00;8.45;;;6.20;;
12976;SDS011;6553;48.412;9.514;2023-08-20T10:05:27;7.20;;;6.15;;
12976;SDS011;6553;48.412;9.514;2023-08-20T10:07:54;9.63;;;6.82;;
12976;SDS011;6553;48.412;9.514;2023-08-20T10:10:22;7.13;;;6.30;;
12976;SDS011;6553;48.412;9.514;2023-08-20T10:12:49;8.20;;;6.40;;
12976;SDS011;6553;48.412;9.514;2023-08-20T10:15:15;9.18;;;6.88;;
12976;SDS011;6553;48.412;9.514;2023-08-20T10:17:42;6.85;;;6.22;;
12976;SDS011;6553;48.412;9.514;2023-08-20T10:20:10;8.48;;;6.85;;
12976;SDS011;6553;48.412;9.514;2023-08-20T10:22:41;6.93;;;6.22;;
12976;SDS011;6553;48.412;9.514;2023-08-20T10:25:09;6.78;;;6.18;;
12976;SDS011;6553;48.412;9.514;2023-08-20T10:27:38;6.47;;;5.97;;
12976;SDS011;6553;48.412;9.514;2023-08-20T10:30:11;8.13;;;6.50;;
12976;SDS011;6553;48.412;9.514;2023-08-20T10:32:52;7.50;;;6.68;;
12976;SDS011;6553;48.412;9.514;2023-08-20T10:35:24;7.95;;;6.20;;
12976;SDS011;6553;48.412;9.514;2023-08-20T10:38:12;8.07;;;7.00;;
12976;SDS011;6553;48.412;9.514;2023-08-20T10:40:48;7.15;;;6.55;;
12976;SDS011;6553;48.412;9.514;2023-08-20T10:43:32;7.25;;;6.55;;
12976;SDS011;6553;48.412;9.514;2023-08-20T10:48:58;7.30;;;6.68;;
12976;SDS011;6553;48.412;9.514;2023-08-20T10:51:28;7.15;;;6.53;;
12976;SDS011;6553;48.412;9.514;2023-08-20T10:56:44;8.00;;;7.20;;
12976;SDS011;6553;48.412;9.514;2023-08-20T10:59:17;6.68;;;6.07;;
12976;SDS011;6553;48.412;9.514;2023-08-20T11:01:47;7.47;;;6.53;;
12976;SDS011;6553;48.412;9.514;2023-08-20T11:04:20;7.75;;;7.05;;
12976;SDS011;6553;48.412;9.514;2023-08-20T11:06:58;7.60;;;6.90;;
12976;SDS011;6553;48.412;9.514;2023-08-20T11:09:25;7.22;;;6.57;;
12976;SDS011;6553;48.412;9.514;2023-08-20T11:11:55;7.10;;;6.50;;
12976;SDS011;6553;48.412;9.514;2023-08-20T11:14:22;6.60;;;6.10;;
12976;SDS011;6553;48.412;9.514;2023-08-20T11:16:49;8.30;;;7.40;;
12976;SDS011;6553;48.412;9.514;2023-08-20T11:19:18;7.45;;;6.75;;
12976;SDS011;6553;48.412;9.514;2023-08-20T11:21:47;7.53;;;6.80;;
12976;SDS011;6553;48.412;9.514;2023-08-20T11:24:14;7.55;;;6.60;;
12976;SDS011;6553;48.412;9.514;2023-08-20T11:26:40;7.93;;;7.13;;
12976;SDS011;6553;48.412;9.514;2023-08-20T11:29:08;7.68;;;6.82;;
12976;SDS011;6553;48.412;9.514;2023-08-20T11:31:36;7.07;;;6.47;;
12976;SDS011;6553;48.412;9.514;2023-08-20T11:34:02;7.60;;;6.90;;
12976;SDS011;6553;48.412;9.514;2023-08-20T11:36:29;7.63;;;7.00;;
12976;SDS011;6553;48.412;9.514;2023-08-20T11:38:55;8.18;;;7.47;;
12976;SDS011;6553;48.412;9.514;2023-08-20T11:41:21;7.38;;;6.68;;
12976;SDS011;6553;48.412;9.514;2023-08-20T11:43:50;7.35;;;6.65;;
12976;SDS011;6553;48.412;9.514;2023-08-20T11:46:18;7.25;;;6.55;;
12976;SDS011;6553;48.412;9.514;2023-08-20T11:51:35;7.25;;;6.65;;
12976;SDS011;6553;48.412;9.514;2023-08-20T11:54:09;6.85;;;6.35;;
12976;SDS011;6553;48.412;9.514;2023-08-20T11:56:45;7.60;;;6.85;;
12976;SDS011;6553;48.412;9.514;2023-08-20T11:59:13;7.28;;;6.57;;
12976;SDS011;6553;48.412;9.514;2023-08-20T12:01:40;7.53;;;6.93;;
12976;SDS011;6553;48.412;9.514;2023-08-20T12:04:08;6.88;;;6.38;;
12976;SDS011;6553;48.412;9.514;2023-08-20T12:06:36;7.70;;;7.00;;
12976;SDS011;6553;48.412;9.514;2023-08-20T12:09:22;7.57;;;6.88;;
12976;SDS011;6553;48.412;9.514;2023-08-20T12:11:49;7.50;;;6.80;;
12976;SDS011;6553;48.412;9.514;2023-08-20T12:14:16;8.38;;;6.85;;
12976;SDS011;6553;48.412;9.514;2023-08-20T12:16:43;7.47;;;6.85;;
12976;SDS011;6553;48.412;9.514;2023-08-20T12:19:10;7.40;;;6.50;;
12976;SDS011;6553;48.412;9.514;2023-08-20T12:21:36;7.32;;;6.72;;
12976;SDS011;6553;48.412;9.514;2023-08-20T12:24:02;7.68;;;7.03;;
12976;SDS011;6553;48.412;9.514;2023-08-20T12:26:29;7.22;;;6.60;;
12976;SDS011;6553;48.412;9.514;2023-08-20T12:28:55;7.43;;;6.82;;
12976;SDS011;6553;48.412;9.514;2023-08-20T12:31:21;6.78;;;6.28;;
12976;SDS011;6553;48.412;9.514;2023-08-20T12:33:46;7.20;;;6.60;;
12976;SDS011;6553;48.412;9.514;2023-08-20T12:36:12;7.10;;;6.50;;
12976;SDS011;6553;48.412;9.514;2023-08-20T12:38:38;7.10;;;6.50;;
12976;SDS011;6553;48.412;9.514;2023-08-20T12:41:03;7.80;;;7.10;;
12976;SDS011;6553;48.412;9.514;2023-08-20T12:43:30;7.85;;;7.20;;
12976;SDS011;6553;48.412;9.514;2023-08-20T12:45:56;7.15;;;6.63;;
12976;SDS011;6553;48.412;9.514;2023-08-20T12:48:21;7.22;;;6.57;;
12976;SDS011;6553;48.412;9.514;2023-08-20T12:50:47;7.25;;;6.65;;
12976;SDS011;6553;48.412;9.514;2023-08-20T12:53:13;6.78;;;6.25;;
12976;SDS011;6553;48.412;9.514;2023-08-20T12:55:39;7.22;;;6.63;;
12976;SDS011;6553;48.412;9.514;2023-08-20T12:58:04;7.22;;;6.55;;
12976;SDS011;6553;48.412;9.514;2023-08-20T13:00:30;7.20;;;6.65;;
12976;SDS011;6553;48.412;9.514;2023-08-20T13:02:56;7.10;;;6.55;;
12976;SDS011;6553;48.412;9.514;2023-08-20T13:05:23;7.15;;;6.50;;
12976;SDS011;6553;48.412;9.514;2023-08-20T13:07:50;6.50;;;5.95;;
12976;SDS011;6553;48.412;9.514;2023-08-20T13:10:17;7.28;;;6.68;;
12976;SDS011;6553;48.412;9.514;2023-08-20T13:12:53;6.72;;;6.22;;
12976;SDS011;6553;48.412;9.514;2023-08-20T13:15:22;7.72;;;7.03;;
12976;SDS011;6553;48.412;9.514;2023-08-20T13:17:50;7.32;;;6.60;;
12976;SDS011;6553;48.412;9.514;2023-08-20T13:20:16;6.93;;;6.32;;
12976;SDS011;6553;48.412;9.514;2023-08-20T13:22:49;6.82;;;6.30;;
12976;SDS011;6553;48.412;9.514;2023-08-20T13:25:17;6.85;;;6.25;;
12976;SDS011;6553;48.412;9.514;2023-08-20T13:27:43;7.18;;;6.57;;
12976;SDS011;6553;48.412;9.514;2023-08-20T13:30:09;7.47;;;6.72;;
12976;SDS011;6553;48.412;9.514;2023-08-20T13:32:36;6.85;;;6.25;;
12976;SDS011;6553;48.412;9.514;2023-08-20T13:35:02;6.85;;;6.25;;
12976;SDS011;6553;48.412;9.514;2023-08-20T13:37:29;7.43;;;6.82;;
12976;SDS011;6553;48.412;9.514;2023-08-20T13:39:56;7.38;;;6.80;;
12976;SDS011;6553;48.412;9.514;2023-08-20T13:42:22;6.70;;;6.20;;
12976;SDS011;6553;48.412;9.514;2023-08-20T13:44:48;7.57;;;6.88;;
12976;SDS011;6553;48.412;9.514;2023-08-20T13:47:14;7.57;;;6.88;;
12976;SDS011;6553;48.412;9.514;2023-08-20T13:49:40;6.90;;;6.25;;
12976;SDS011;6553;48.412;9.514;2023-08-20T13:52:05;6.88;;;6.32;;
12976;SDS011;6553;48.412;9.514;2023-08-20T13:54:32;6.78;;;6.13;;
12976;SDS011;6553;48.412;9.514;2023-08-20T13:56:59;7.35;;;6.47;;
12976;SDS011;6553;48.412;9.514;2023-08-20T13:59:25;7.13;;;6.53;;
12976;SDS011;6553;48.412;9.514;2023-08-20T14:01:51;6.75;;;6.25;;
12976;SDS011;6553;48.412;9.514;2023-08-20T14:04:16;7.55;;;6.90;;
12976;SDS011;6553;48.412;9.514;2023-08-20T14:06:42;6.88;;;6.28;;
12976;SDS011;6553;48.412;9.514;2023-08-20T14:09:08;6.88;;;6.38;;
12976;SDS011;6553;48.412;9.514;2023-08-20T14:11:34;6.95;;;6.38;;
12976;SDS011;6553;48.412;9.514;2023-08-20T14:13:59;7.13;;;6.38;;
12976;SDS011;6553;48.412;9.514;2023-08-20T14:16:25;6.93;;;6.43;;
12976;SDS011;6553;48.412;9.514;2023-08-20T14:18:51;6.82;;;6.25;;
12976;SDS011;6553;48.412;9.514;2023-08-20T14:21:16;7.18;;;6.68;;
12976;SDS011;6553;48.412;9.514;2023-08-20T14:23:42;6.85;;;6.25;;
12976;SDS011;6553;48.412;9.514;2023-08-20T14:26:08;7.10;;;6.50;;
12976;SDS011;6553;48.412;9.514;2023-08-20T14:28:33;7.22;;;6.63;;
12976;SDS011;6553;48.412;9.514;2023-08-20T14:31:03;7.50;;;6.63;;
12976;SDS011;6553;48.412;9.514;2023-08-20T14:33:29;7.50;;;6.90;;
12976;SDS011;6553;48.412;9.514;2023-08-20T14:35:58;6.93;;;6.43;;
12976;SDS011;6553;48.412;9.514;2023-08-20T14:38:24;7.68;;;7.07;;
12976;SDS011;6553;48.412;9.514;2023-08-20T14:40:49;7.55;;;6.85;;
12976;SDS011;6553;48.412;9.514;2023-08-20T14:43:15;7.13;;;6.53;;
12976;SDS011;6553;48.412;9.514;2023-08-20T14:45:41;7.28;;;6.68;;
12976;SDS011;6553;48.412;9.514;2023-08-20T14:48:07;7.88;;;7.28;;
12976;SDS011;6553;48.412;9.514;2023-08-20T14:50:32;7.13;;;6.53;;
12976;SDS011;6553;48.412;9.514;2023-08-20T14:52:58;7.38;;;6.82;;
12976;SDS011;6553;48.412;9.514;2023-08-20T14:55:26;7.43;;;6.85;;
12976;SDS011;6553;48.412;9.514;2023-08-20T14:57:51;7.90;;;7.30;;
12976;SDS011;6553;48.412;9.514;2023-08-20T15:00:17;7.45;;;6.95;;
12976;SDS011;6553;48.412;9.514;2023-08-20T15:02:43;7.75;;;7.10;;
12976;SDS011;6553;48.412;9.514;2023-08-20T15:05:10;6.93;;;6.40;;
12976;SDS011;6553;48.412;9.514;2023-08-20T15:07:36;7.75;;;7.13;;
12976;SDS011;6553;48.412;9.514;2023-08-20T15:10:02;7.45;;;6.82;;
12976;SDS011;6553;48.412;9.514;2023-08-20T15:12:31;7.65;;;7.05;;
12976;SDS011;6553;48.412;9.514;2023-08-20T15:15:01;7.65;;;6.95;;
12976;SDS011;6553;48.412;9.514;2023-08-20T15:17:29;7.75;;;6.95;;
12976;SDS011;6553;48.412;9.514;2023-08-20T15:19:56;7.10;;;6.50;;